Airfield :
LOGIN :

Register | Disclaimer

   EN    FR    IT 

 










Legend :    VFR   Marginal VFR   IFR   Intensive IFR   Very Intensive IFR
Visi :
Ceiling :
>= 8 km
>= 3000ft
5 to 8 km
1000 to 3000 ft
1500m to 5 km
500 to 1000 ft
800 to 1500m
200 to 500 ft
< 800m
< 200 ft
Symbols :   Thunderstorms  Fog  Heavy snow  Heavy precipitations  Wind > 20 kt
SIGMETs :     Misc.  Thunderstorms  Icing  Turbulence  Mountain Waves  Volcanic Ashes






- Airport Elevation : 2265 ft
- IATA code : CZL


DABC - Mohamed Boudiaf Int. Constantine

CURRENT METAR :
  • 162300Z 33009KT 9999 SCT026 FEW030TCU 05/02 Q1026

EXPIRED METARs :
  • 162200Z 31007KT 8000 SCT013 BKN020 FEW023TCU 06/04 Q1025
  • 162100Z 33010KT 9999 BKN020 FEW023TCU 05/04 Q1025
  • 162040Z 35009KT 9999 SCT013 FEW020TCU BKN023 06/04 Q1025

TAF TAF DABC
Valid from the 16 at 18:00 until the 17 at 18:00 UTC


161700Z 1618/1718 24008KT 8000 FEW010 BKN023
PROB40
TEMPO 1612/1622 32012KT 4000 -RA FEW020CB
PROB30
TEMPO 1622/1708 FEW020CB



MET'MAP, your aeronautical weather chart ! - Copyright ORBIFLY December 2007 - Disclaimer

ORBIFLY MET'MAP TEAM :

Programming & Development : Alexandra Zaïnal
Concept & original design : Baudouin d'Aumeries
Assistance for programming : Marc-Olivier Méhu
Technical & hardware support : Manuel Goepfert

Contact : metmap@orbifly.com




SOURCES & CREDITS :

   NOAA